createdAt,value
2019-05-07T00:01:33.961Z,2.10
2019-05-07T00:04:01.957Z,2.10
2019-05-07T00:06:28.707Z,2.00
2019-05-07T00:08:56.369Z,1.80
2019-05-07T00:11:25.888Z,1.60
2019-05-07T00:13:55.234Z,1.70
2019-05-07T00:16:23.658Z,1.60
2019-05-07T00:18:52.528Z,1.50
2019-05-07T00:21:20.212Z,1.40
2019-05-07T00:23:47.769Z,1.30
2019-05-07T00:26:17.421Z,1.30
2019-05-07T00:28:45.446Z,1.30
2019-05-07T00:31:14.532Z,1.30
2019-05-07T00:33:43.210Z,1.20
2019-05-07T00:39:17.333Z,1.00
2019-05-07T00:41:52.114Z,1.00
2019-05-07T00:44:18.933Z,0.90
2019-05-07T00:46:47.384Z,0.90
2019-05-07T00:49:15.492Z,0.80
2019-05-07T00:51:43.669Z,0.80
2019-05-07T00:54:12.294Z,0.70
2019-05-07T00:56:42.869Z,0.80
2019-05-07T00:59:08.182Z,0.80
2019-05-07T01:01:35.336Z,0.80
2019-05-07T01:04:03.923Z,0.80
2019-05-07T01:06:33.221Z,0.80
2019-05-07T01:09:03.018Z,0.90
2019-05-07T01:11:28.541Z,0.80
2019-05-07T01:13:56.514Z,0.70
2019-05-07T01:16:23.660Z,0.70
2019-05-07T01:18:53.618Z,0.60
2019-05-07T01:21:19.905Z,0.30
2019-05-07T01:23:47.676Z,0.30
2019-05-07T01:26:16.748Z,0.10
2019-05-07T01:28:50.164Z,0.20
2019-05-07T01:31:18.033Z,0.20
2019-05-07T01:33:45.416Z,0.20
2019-05-07T01:39:23.278Z,0.10
2019-05-07T01:41:52.450Z,0.00
2019-05-07T01:44:18.820Z,0.00
2019-05-07T01:46:45.679Z,0.00
2019-05-07T01:49:12.770Z,-0.10
2019-05-07T01:51:42.265Z,-0.10
2019-05-07T01:54:08.013Z,-0.10
2019-05-07T01:56:35.476Z,-0.10
2019-05-07T01:59:03.734Z,-0.10
2019-05-07T02:01:33.163Z,-0.10
2019-05-07T02:04:03.505Z,-0.10
2019-05-07T02:06:37.899Z,-0.20
2019-05-07T02:09:06.020Z,-0.20
2019-05-07T02:11:48.328Z,-0.20
2019-05-07T02:14:16.496Z,-0.20
2019-05-07T02:16:43.447Z,-0.30
2019-05-07T02:19:12.702Z,-0.40
2019-05-07T02:21:38.290Z,-0.40
2019-05-07T02:24:06.543Z,-0.40
2019-05-07T02:26:33.862Z,-0.50
2019-05-07T02:29:02.727Z,-0.40
2019-05-07T02:31:33.230Z,-0.50
2019-05-07T02:33:56.880Z,-0.50
2019-05-07T02:36:24.808Z,-0.50
2019-05-07T02:39:07.875Z,-0.50
2019-05-07T02:41:35.490Z,-0.50
2019-05-07T02:44:04.222Z,-0.50
2019-05-07T02:46:36.328Z,-0.40
2019-05-07T02:49:23.250Z,-0.40
2019-05-07T02:52:03.791Z,-0.40
2019-05-07T02:54:32.813Z,-0.40
2019-05-07T02:56:58.054Z,-0.50
2019-05-07T02:59:25.281Z,-0.40
2019-05-07T03:01:53.954Z,-0.40
2019-05-07T03:04:24.998Z,-0.40
2019-05-07T03:06:49.823Z,-0.40
2019-05-07T03:09:17.169Z,-0.30
2019-05-07T03:11:45.352Z,-0.30
2019-05-07T03:14:13.967Z,-0.30
2019-05-07T03:16:47.605Z,-0.20
2019-05-07T03:19:08.845Z,-0.20
2019-05-07T03:21:44.123Z,-0.20
2019-05-07T03:24:13.819Z,-0.20
2019-05-07T03:26:38.020Z,-0.20
2019-05-07T03:29:05.904Z,0.00
2019-05-07T03:31:45.927Z,0.00
2019-05-07T03:34:07.671Z,0.00
2019-05-07T03:36:36.786Z,0.10
2019-05-07T03:39:03.751Z,0.20
2019-05-07T03:41:33.235Z,0.50
2019-05-07T03:43:58.546Z,0.70
2019-05-07T03:46:25.467Z,0.90
2019-05-07T03:48:53.120Z,1.20
2019-05-07T03:51:19.943Z,1.60
2019-05-07T03:53:46.728Z,1.60
2019-05-07T03:56:13.543Z,1.80
2019-05-07T03:58:42.883Z,2.20
2019-05-07T04:01:08.541Z,2.70
2019-05-07T04:03:36.477Z,3.10
2019-05-07T04:06:04.570Z,3.30
2019-05-07T04:08:33.396Z,3.40
2019-05-07T04:11:03.177Z,3.40
2019-05-07T04:13:28.277Z,4.20
2019-05-07T04:15:55.634Z,4.20
2019-05-07T04:18:23.705Z,4.30
2019-05-07T04:20:49.805Z,4.30
2019-05-07T04:23:17.061Z,4.40
2019-05-07T04:25:52.685Z,4.40
2019-05-07T04:28:23.662Z,4.10
2019-05-07T04:30:48.376Z,3.80
2019-05-07T04:33:17.497Z,5.20
2019-05-07T04:38:38.845Z,5.40
2019-05-07T04:41:05.841Z,5.80
2019-05-07T04:43:33.713Z,5.90
2019-05-07T04:46:02.809Z,6.00
2019-05-07T04:48:27.219Z,6.50
2019-05-07T04:50:55.662Z,8.90
2019-05-07T04:53:23.867Z,8.80
2019-05-07T04:55:53.264Z,8.70
2019-05-07T04:58:17.628Z,8.50
2019-05-07T05:00:44.528Z,7.50
2019-05-07T05:03:12.885Z,6.60
2019-05-07T05:05:38.976Z,6.10
2019-05-07T05:08:05.831Z,5.80
2019-05-07T05:10:33.761Z,6.20
2019-05-07T05:13:02.907Z,7.50
2019-05-07T05:15:27.622Z,7.50
2019-05-07T05:17:54.419Z,7.50
2019-05-07T05:20:22.168Z,7.70
2019-05-07T05:22:53.162Z,7.20
2019-05-07T05:25:22.720Z,6.50
2019-05-07T05:27:48.295Z,7.10
2019-05-07T05:30:17.643Z,7.10
2019-05-07T05:32:45.510Z,7.20
2019-05-07T05:35:12.742Z,7.20
2019-05-07T05:37:39.913Z,8.00
2019-05-07T05:40:08.866Z,10.70
2019-05-07T05:42:33.572Z,13.70
2019-05-07T05:45:02.072Z,15.70
2019-05-07T05:47:27.291Z,15.60
2019-05-07T05:49:54.995Z,16.40
2019-05-07T05:52:23.607Z,16.30
2019-05-07T05:54:52.873Z,15.00
2019-05-07T05:57:19.905Z,12.50
2019-05-07T05:59:52.011Z,12.50
2019-05-07T06:05:15.534Z,11.30
2019-05-07T06:07:45.547Z,11.10
2019-05-07T06:10:14.541Z,9.90
2019-05-07T06:12:42.872Z,9.70
2019-05-07T06:15:12.706Z,8.70
2019-05-07T06:17:42.747Z,9.70
2019-05-07T06:20:12.164Z,9.70
2019-05-07T06:22:55.992Z,10.80
2019-05-07T06:25:24.649Z,13.10
2019-05-07T06:27:49.613Z,13.70
2019-05-07T06:30:17.147Z,12.60
2019-05-07T06:32:44.039Z,12.60
2019-05-07T06:35:12.257Z,12.40
2019-05-07T06:37:38.337Z,10.90
2019-05-07T06:43:21.813Z,10.10
2019-05-07T06:45:51.926Z,9.80
2019-05-07T06:48:17.771Z,9.50
2019-05-07T06:51:03.283Z,8.90
2019-05-07T06:53:30.103Z,8.80
2019-05-07T06:55:57.003Z,8.60
2019-05-07T06:58:24.598Z,9.20
2019-05-07T07:01:06.216Z,9.20
2019-05-07T07:03:35.966Z,9.30
2019-05-07T07:06:02.874Z,8.40
2019-05-07T07:08:32.424Z,8.00
2019-05-07T07:11:03.512Z,7.20
2019-05-07T07:13:32.154Z,7.50
2019-05-07T07:15:57.152Z,7.90
2019-05-07T07:18:23.865Z,7.80
2019-05-07T07:20:52.323Z,7.60
2019-05-07T07:23:17.349Z,7.40
2019-05-07T07:25:44.872Z,7.00
2019-05-07T07:28:12.318Z,7.00
2019-05-07T07:30:55.131Z,6.80
2019-05-07T07:33:22.415Z,7.00
2019-05-07T07:35:48.696Z,7.10
2019-05-07T07:38:22.285Z,8.10
2019-05-07T07:40:48.982Z,12.50
2019-05-07T07:43:15.675Z,12.50
2019-05-07T07:45:42.535Z,14.10
2019-05-07T07:48:09.491Z,13.60
2019-05-07T07:50:36.215Z,13.80
2019-05-07T07:53:02.984Z,15.30
2019-05-07T07:55:29.746Z,15.90
2019-05-07T07:57:57.294Z,14.70
2019-05-07T08:00:26.117Z,14.70
2019-05-07T08:02:52.928Z,13.90
2019-05-07T08:05:18.815Z,12.50
2019-05-07T08:07:45.555Z,11.80
2019-05-07T08:10:12.940Z,12.20
2019-05-07T08:12:39.348Z,12.60
2019-05-07T08:15:16.639Z,13.50
2019-05-07T08:17:33.133Z,13.60
2019-05-07T08:20:02.389Z,13.70
2019-05-07T08:22:27.534Z,11.50
2019-05-07T08:24:54.382Z,11.50
2019-05-07T08:27:22.241Z,10.50
2019-05-07T08:29:48.167Z,10.40
2019-05-07T08:32:15.827Z,11.10
2019-05-07T08:35:02.330Z,11.10
2019-05-07T08:37:27.169Z,11.50
2019-05-07T08:39:53.863Z,12.00
2019-05-07T08:42:22.670Z,12.90
2019-05-07T08:44:47.652Z,13.10
2019-05-07T08:47:18.265Z,14.40
2019-05-07T08:49:44.973Z,14.40
2019-05-07T08:52:12.687Z,13.60
2019-05-07T08:54:39.403Z,13.50
2019-05-07T08:57:06.156Z,12.60
2019-05-07T08:59:33.011Z,11.80
2019-05-07T09:01:59.853Z,11.10
2019-05-07T09:04:26.595Z,11.20
2019-05-07T09:06:53.441Z,10.60
2019-05-07T09:09:22.258Z,10.90
2019-05-07T09:11:47.123Z,11.40
2019-05-07T09:14:14.022Z,11.60
2019-05-07T09:16:42.733Z,11.70
2019-05-07T09:19:08.370Z,11.70
2019-05-07T09:21:36.235Z,11.50
2019-05-07T09:24:03.066Z,11.30
2019-05-07T09:26:44.851Z,11.00
2019-05-07T09:29:23.596Z,11.10
2019-05-07T09:31:53.292Z,11.10
2019-05-07T09:34:22.158Z,11.00
2019-05-07T09:36:46.891Z,11.10
2019-05-07T09:39:13.606Z,10.90
2019-05-07T09:41:41.779Z,10.90
2019-05-07T09:44:07.925Z,10.70
2019-05-07T09:46:34.642Z,10.70
2019-05-07T09:49:03.068Z,11.20
2019-05-07T09:51:28.152Z,11.20
2019-05-07T09:53:54.868Z,11.20
2019-05-07T09:56:22.897Z,11.30
2019-05-07T09:58:49.263Z,11.10
2019-05-07T10:01:16.009Z,11.10
2019-05-07T10:03:43.027Z,11.40
2019-05-07T10:06:09.621Z,11.50
2019-05-07T10:08:36.406Z,11.60
2019-05-07T10:11:03.966Z,11.70
2019-05-07T10:13:32.979Z,11.60
2019-05-07T10:15:59.997Z,11.80
2019-05-07T10:18:27.452Z,11.90
2019-05-07T10:20:54.917Z,12.00
2019-05-07T10:23:22.974Z,12.00
2019-05-07T10:25:48.555Z,11.10
2019-05-07T10:28:15.297Z,11.30
2019-05-07T10:30:42.802Z,11.30
2019-05-07T10:33:08.826Z,11.20
2019-05-07T10:35:36.282Z,10.50
2019-05-07T10:38:03.810Z,10.40
2019-05-07T10:40:32.570Z,10.40
2019-05-07T10:42:58.088Z,10.30
2019-05-07T10:45:26.765Z,10.30
2019-05-07T10:47:53.512Z,10.10
2019-05-07T10:50:35.386Z,10.00
2019-05-07T10:52:49.005Z,9.80
2019-05-07T10:55:15.778Z,9.60
2019-05-07T10:57:42.803Z,9.40
2019-05-07T11:00:09.664Z,9.30
2019-05-07T11:02:39.197Z,9.10
2019-05-07T11:05:04.795Z,9.30
2019-05-07T11:07:32.809Z,9.20
2019-05-07T11:09:58.337Z,9.30
2019-05-07T11:12:25.828Z,9.10
2019-05-07T11:14:52.576Z,9.10
2019-05-07T11:17:25.565Z,8.90
2019-05-07T11:19:52.512Z,8.40
2019-05-07T11:22:19.211Z,8.40
2019-05-07T11:24:46.675Z,7.60
2019-05-07T11:27:14.289Z,7.00
2019-05-07T11:29:42.970Z,6.90
2019-05-07T11:32:09.591Z,6.90
2019-05-07T11:34:36.432Z,6.60
2019-05-07T11:37:03.276Z,7.00
2019-05-07T11:39:30.017Z,6.70
2019-05-07T11:42:03.006Z,6.80
2019-05-07T11:44:31.933Z,6.90
2019-05-07T11:47:12.313Z,7.10
2019-05-07T11:49:57.204Z,7.30
2019-05-07T11:52:23.929Z,7.50
2019-05-07T11:54:52.514Z,7.90
2019-05-07T11:57:17.688Z,8.10
2019-05-07T11:59:45.129Z,8.00
2019-05-07T12:02:12.104Z,8.00
2019-05-07T12:04:38.684Z,7.80
2019-05-07T12:07:05.443Z,7.70
2019-05-07T12:09:33.249Z,7.60
2019-05-07T12:11:59.831Z,7.60
2019-05-07T12:14:31.540Z,7.50
2019-05-07T12:16:53.293Z,7.50
2019-05-07T12:19:20.082Z,7.40
2019-05-07T12:21:46.796Z,7.10
2019-05-07T12:24:16.255Z,7.30
2019-05-07T12:26:41.726Z,7.50
2019-05-07T12:29:07.233Z,8.10
2019-05-07T12:31:44.940Z,8.40
2019-05-07T12:34:11.901Z,8.80
2019-05-07T12:36:38.451Z,9.10
2019-05-07T12:39:05.346Z,8.90
2019-05-07T12:41:33.668Z,9.20
2019-05-07T12:43:59.891Z,9.20
2019-05-07T12:46:26.639Z,9.00
2019-05-07T12:48:54.150Z,9.10
2019-05-07T12:54:18.952Z,9.20
2019-05-07T12:56:45.673Z,9.10
2019-05-07T12:59:12.822Z,9.00
2019-05-07T13:01:42.194Z,9.00
2019-05-07T13:04:08.861Z,8.60
2019-05-07T13:06:35.736Z,8.20
2019-05-07T13:09:02.580Z,8.20
2019-05-07T13:11:29.282Z,8.20
2019-05-07T13:13:56.779Z,8.10
2019-05-07T13:16:23.483Z,8.00
2019-05-07T13:18:52.611Z,8.00
2019-05-07T13:21:17.819Z,8.00
2019-05-07T13:23:44.660Z,7.70
2019-05-07T13:26:11.504Z,7.50
2019-05-07T13:28:38.724Z,7.40
2019-05-07T13:31:06.933Z,7.10
2019-05-07T13:33:34.527Z,6.80
2019-05-07T13:36:02.322Z,6.60
2019-05-07T13:38:27.764Z,7.00
2019-05-07T13:40:55.361Z,7.10
2019-05-07T13:43:23.170Z,7.80
2019-05-07T13:45:56.179Z,7.70
2019-05-07T13:48:23.226Z,7.80
2019-05-07T13:50:49.967Z,8.10
2019-05-07T13:53:16.761Z,8.40
2019-05-07T13:55:44.256Z,8.70
2019-05-07T13:58:14.013Z,8.80
2019-05-07T14:00:42.591Z,9.00
2019-05-07T14:03:07.766Z,9.10
2019-05-07T14:05:35.325Z,8.90
2019-05-07T14:08:04.514Z,8.90
2019-05-07T14:10:28.983Z,8.70
2019-05-07T14:13:07.568Z,8.70
2019-05-07T14:15:23.129Z,9.10
2019-05-07T14:17:49.641Z,9.10
2019-05-07T14:20:16.383Z,8.80
2019-05-07T14:22:43.534Z,8.60
2019-05-07T14:25:11.604Z,8.20
2019-05-07T14:27:38.444Z,8.20
2019-05-07T14:30:05.697Z,8.40
2019-05-07T14:32:34.691Z,8.50
2019-05-07T14:35:02.460Z,8.50
2019-05-07T14:37:32.354Z,8.50
2019-05-07T14:39:57.882Z,8.40
2019-05-07T14:42:25.544Z,8.40
2019-05-07T14:44:52.812Z,8.40
2019-05-07T14:47:19.241Z,8.20
2019-05-07T14:49:46.075Z,8.40
2019-05-07T14:52:13.019Z,8.30
2019-05-07T14:54:39.860Z,8.30
2019-05-07T14:57:06.809Z,8.10
2019-05-07T14:59:33.648Z,7.80
2019-05-07T15:02:02.701Z,7.60
2019-05-07T15:04:27.335Z,7.60
2019-05-07T15:06:54.282Z,7.40
2019-05-07T15:09:22.419Z,7.20
2019-05-07T15:11:47.969Z,7.10
2019-05-07T15:14:14.809Z,6.90
2019-05-07T15:16:42.623Z,6.70
2019-05-07T15:19:09.928Z,7.00
2019-05-07T15:21:37.283Z,6.90
2019-05-07T15:24:04.641Z,7.10
2019-05-07T15:26:32.601Z,7.00
2019-05-07T15:28:58.533Z,6.90
2019-05-07T15:31:32.047Z,6.60
2019-05-07T15:33:59.163Z,6.70
2019-05-07T15:36:25.927Z,6.50
2019-05-07T15:38:52.864Z,6.60
2019-05-07T15:41:19.709Z,6.70
2019-05-07T15:43:46.552Z,6.80
2019-05-07T15:46:13.495Z,6.60
2019-05-07T15:48:41.899Z,6.50
2019-05-07T15:51:07.179Z,6.70
2019-05-07T15:53:52.338Z,6.70
2019-05-07T15:56:18.889Z,6.80
2019-05-07T15:58:45.629Z,6.80
2019-05-07T16:01:12.820Z,6.80
2019-05-07T16:03:46.994Z,7.00
2019-05-07T16:06:13.969Z,6.80
2019-05-07T16:08:42.512Z,6.70
2019-05-07T16:11:07.831Z,6.70
2019-05-07T16:13:46.653Z,6.60
2019-05-07T16:16:13.489Z,6.60
2019-05-07T16:18:56.109Z,6.70
2019-05-07T16:21:22.848Z,6.70
2019-05-07T16:23:49.565Z,6.60
2019-05-07T16:26:16.345Z,6.50
2019-05-07T16:28:43.051Z,6.30
2019-05-07T16:31:09.768Z,6.20
2019-05-07T16:33:37.242Z,6.10
2019-05-07T16:36:03.977Z,6.10
2019-05-07T16:38:32.538Z,6.20
2019-05-07T16:40:57.531Z,6.20
2019-05-07T16:43:24.987Z,6.30
2019-05-07T16:45:51.898Z,6.30
2019-05-07T16:48:23.072Z,6.40
2019-05-07T16:50:47.799Z,6.30
2019-05-07T16:53:26.569Z,6.50
2019-05-07T16:59:12.759Z,6.50
2019-05-07T17:01:39.526Z,6.60
2019-05-07T17:04:06.247Z,6.50
2019-05-07T17:06:33.050Z,6.40
2019-05-07T17:08:59.905Z,6.20
2019-05-07T17:11:26.626Z,6.10
2019-05-07T17:13:54.102Z,5.80
2019-05-07T17:16:22.677Z,5.80
2019-05-07T17:18:48.498Z,5.70
2019-05-07T17:21:15.235Z,5.70
2019-05-07T17:23:44.697Z,5.70
2019-05-07T17:26:08.758Z,5.80
2019-05-07T17:28:35.579Z,5.90
2019-05-07T17:31:03.033Z,5.90
2019-05-07T17:33:29.186Z,5.80
2019-05-07T17:35:56.039Z,5.70
2019-05-07T17:38:23.221Z,5.60
2019-05-07T17:40:52.142Z,5.70
2019-05-07T17:43:17.203Z,5.70
2019-05-07T17:45:44.006Z,5.80
2019-05-07T17:48:12.321Z,5.90
2019-05-07T17:50:53.490Z,6.00
2019-05-07T17:53:22.536Z,6.00
2019-05-07T17:55:47.639Z,6.10
2019-05-07T17:58:14.432Z,6.20
2019-05-07T18:00:42.111Z,6.20
2019-05-07T18:03:13.350Z,6.10
2019-05-07T18:05:42.335Z,6.10
2019-05-07T18:08:07.449Z,6.10
2019-05-07T18:10:35.169Z,6.20
2019-05-07T18:13:01.967Z,6.10
2019-05-07T18:15:28.812Z,6.10
2019-05-07T18:18:02.857Z,6.00
2019-05-07T18:20:27.198Z,6.00
2019-05-07T18:22:54.638Z,5.90
2019-05-07T18:25:21.777Z,5.90
2019-05-07T18:27:48.599Z,5.90
2019-05-07T18:30:16.128Z,5.80
2019-05-07T18:32:53.158Z,5.70
2019-05-07T18:35:20.061Z,5.70
2019-05-07T18:37:52.562Z,5.90
2019-05-07T18:40:18.791Z,5.90
2019-05-07T18:42:45.721Z,5.90
2019-05-07T18:45:12.549Z,5.70
2019-05-07T18:47:39.229Z,5.60
2019-05-07T18:50:05.992Z,5.40
2019-05-07T18:52:32.799Z,5.20
2019-05-07T18:54:59.483Z,5.00
2019-05-07T18:57:26.250Z,4.90
2019-05-07T18:59:53.296Z,4.80
2019-05-07T19:02:22.521Z,4.60
2019-05-07T19:04:47.836Z,4.60
2019-05-07T19:07:14.691Z,4.60
2019-05-07T19:09:42.388Z,4.50
2019-05-07T19:12:09.044Z,4.50
2019-05-07T19:14:35.850Z,4.50
2019-05-07T19:17:03.191Z,4.50
2019-05-07T19:19:29.686Z,4.50
2019-05-07T19:21:56.416Z,4.50
2019-05-07T19:24:26.244Z,4.60
2019-05-07T19:26:52.686Z,4.50
2019-05-07T19:29:18.738Z,4.50
2019-05-07T19:31:45.469Z,4.40
2019-05-07T19:34:12.451Z,4.40
2019-05-07T19:36:42.255Z,4.40
2019-05-07T19:39:07.366Z,4.40
2019-05-07T19:41:34.604Z,4.40
2019-05-07T19:44:02.004Z,4.30
2019-05-07T19:46:28.328Z,4.30
2019-05-07T19:48:55.241Z,4.30
2019-05-07T19:51:22.107Z,4.30
2019-05-07T19:53:49.502Z,4.30
2019-05-07T19:56:17.466Z,4.20
2019-05-07T19:58:44.260Z,4.20
2019-05-07T20:01:12.230Z,4.00
2019-05-07T20:03:38.518Z,4.00
2019-05-07T20:06:05.564Z,3.90
2019-05-07T20:08:32.504Z,3.90
2019-05-07T20:11:02.815Z,3.80
2019-05-07T20:13:29.579Z,3.80
2019-05-07T20:16:07.347Z,3.80
2019-05-07T20:18:34.235Z,3.80
2019-05-07T20:21:02.657Z,3.70
2019-05-07T20:23:28.535Z,3.60
2019-05-07T20:25:56.672Z,3.50
2019-05-07T20:28:24.251Z,3.50
2019-05-07T20:30:52.961Z,3.50
2019-05-07T20:33:17.830Z,3.60
2019-05-07T20:35:44.748Z,3.50
2019-05-07T20:38:11.507Z,3.50
2019-05-07T20:40:38.223Z,3.50
2019-05-07T20:43:05.184Z,3.50
2019-05-07T20:45:32.174Z,3.40
2019-05-07T20:47:58.844Z,3.40
2019-05-07T20:50:25.600Z,3.40
2019-05-07T20:52:52.478Z,3.40
2019-05-07T20:55:30.557Z,3.50
2019-05-07T20:57:53.546Z,3.50
2019-05-07T21:00:18.262Z,3.50
2019-05-07T21:02:48.232Z,3.70
2019-05-07T21:05:12.740Z,3.60
2019-05-07T21:07:39.411Z,3.70
2019-05-07T21:10:06.915Z,3.80
2019-05-07T21:12:33.686Z,3.80
2019-05-07T21:15:03.252Z,3.80
2019-05-07T21:17:28.621Z,3.90
2019-05-07T21:19:55.513Z,3.90
2019-05-07T21:22:22.817Z,3.90
2019-05-07T21:24:49.774Z,4.00
2019-05-07T21:27:16.773Z,3.90
2019-05-07T21:29:43.926Z,4.00
2019-05-07T21:32:12.422Z,4.00
2019-05-07T21:34:38.779Z,4.00
2019-05-07T21:37:08.520Z,4.10
2019-05-07T21:39:34.566Z,4.20
2019-05-07T21:42:02.028Z,4.20
2019-05-07T21:44:32.350Z,4.20
2019-05-07T21:46:57.919Z,4.30
2019-05-07T21:49:24.744Z,4.20
2019-05-07T21:51:52.346Z,4.30
2019-05-07T21:54:23.461Z,4.30
2019-05-07T21:56:54.596Z,4.20
2019-05-07T21:59:21.896Z,4.20
2019-05-07T22:01:49.712Z,4.00
2019-05-07T22:04:16.519Z,4.00
2019-05-07T22:06:45.561Z,4.00
2019-05-07T22:09:12.670Z,3.90
2019-05-07T22:11:38.839Z,3.80
2019-05-07T22:19:46.860Z,3.50
2019-05-07T22:22:14.678Z,3.40
2019-05-07T22:24:42.566Z,3.30
2019-05-07T22:27:08.937Z,3.20
2019-05-07T22:29:36.394Z,3.20
2019-05-07T22:32:09.063Z,3.30
2019-05-07T22:34:37.482Z,3.30
2019-05-07T22:37:04.271Z,3.30
2019-05-07T22:39:32.737Z,3.20
2019-05-07T22:41:58.584Z,3.20
2019-05-07T22:44:26.313Z,3.20
2019-05-07T22:46:52.742Z,3.20
2019-05-07T22:49:33.856Z,3.20
2019-05-07T22:52:02.348Z,3.20
2019-05-07T22:54:28.161Z,3.10
2019-05-07T22:56:54.889Z,3.10
2019-05-07T22:59:22.433Z,3.10
2019-05-07T23:01:48.424Z,3.00
2019-05-07T23:04:15.932Z,2.90
2019-05-07T23:06:43.680Z,2.90
2019-05-07T23:09:10.228Z,2.70
2019-05-07T23:11:36.955Z,2.70
2019-05-07T23:14:03.767Z,2.60
2019-05-07T23:16:32.421Z,2.60
2019-05-07T23:18:57.368Z,2.50
2019-05-07T23:21:24.621Z,2.50
2019-05-07T23:23:52.764Z,2.40
2019-05-07T23:26:17.723Z,2.40
2019-05-07T23:28:44.481Z,2.30
2019-05-07T23:31:12.105Z,2.30
2019-05-07T23:33:38.024Z,2.30
2019-05-07T23:36:04.727Z,2.20
2019-05-07T23:38:32.199Z,2.20
2019-05-07T23:41:02.138Z,2.20
2019-05-07T23:43:27.765Z,2.20
2019-05-07T23:45:54.476Z,2.20
2019-05-07T23:48:22.820Z,2.20
2019-05-07T23:50:48.014Z,2.10
2019-05-07T23:53:15.516Z,2.20
2019-05-07T23:55:42.491Z,2.10
2019-05-07T23:58:08.990Z,2.20
